Time;durP1;ratioP1;P1;durP2;ratioP2;P2;SDS_P1;SDS_P2;PMS_P1;PMS_P2;Temp;Humidity;BMP_temperature;BMP_pressure;BME280_temperature;BME280_humidity;BME280_pressure;Samples;Min_cycle;Max_cycle;Signal;HPM_P1;HPM_P2
2023/07/15 00:00:53;;;;;;;15.93;11.40;;;589.60;2432.00;;;;;;5081065;28;20115;-70
2023/07/15 00:03:19;;;;;;;14.35;10.55;;;589.70;2432.00;;;;;;5084922;28;20418;-72
2023/07/15 00:05:46;;;;;;;12.95;11.52;;;589.60;2432.00;;;;;;5082010;28;20044;-70
2023/07/15 00:08:12;;;;;;;15.63;11.93;;;589.60;2432.00;;;;;;5085495;28;20472;-69
2023/07/15 00:10:41;;;;;;;13.75;11.25;;;589.60;2432.00;;;;;;5084536;28;20081;-70
2023/07/15 00:13:12;;;;;;;13.18;11.77;;;589.50;2432.00;;;;;;5078283;28;20039;-71
2023/07/15 00:15:39;;;;;;;14.02;11.05;;;589.60;2432.00;;;;;;5079005;28;20118;-70
2023/07/15 00:18:06;;;;;;;15.68;11.20;;;589.60;2432.00;;;;;;5084372;28;20537;-70
2023/07/15 00:20:31;;;;;;;14.55;12.65;;;589.70;2432.00;;;;;;5093985;28;20028;-70
2023/07/15 00:22:57;;;;;;;18.13;12.18;;;589.70;2432.00;;;;;;5099531;28;20134;-71
2023/07/15 00:25:25;;;;;;;12.80;11.50;;;589.60;2432.00;;;;;;5081569;28;20067;-70
2023/07/15 00:27:50;;;;;;;14.80;12.18;;;589.60;2432.00;;;;;;5074587;28;20490;-71
2023/07/15 00:30:19;;;;;;;13.63;12.23;;;589.40;2432.00;;;;;;5074629;28;20138;-71
2023/07/15 00:32:49;;;;;;;18.15;13.10;;;589.50;2432.00;;;;;;5082277;28;20043;-72
2023/07/15 00:35:22;;;;;;;14.77;13.15;;;589.30;2432.00;;;;;;5114657;28;20035;-70
2023/07/15 00:37:48;;;;;;;14.05;12.25;;;589.30;2432.00;;;;;;5114575;28;20024;-70
2023/07/15 00:40:15;;;;;;;14.48;12.93;;;589.20;2432.00;;;;;;5113652;28;20026;-71
2023/07/15 00:42:52;;;;;;;17.70;12.75;;;589.20;2432.00;;;;;;5114208;28;20046;-70
2023/07/15 00:45:18;;;;;;;16.25;13.68;;;589.10;2432.00;;;;;;5114379;28;20019;-72
2023/07/15 00:48:16;;;;;;;16.00;12.68;;;589.10;2432.00;;;;;;5114519;28;20026;-70
2023/07/15 00:50:42;;;;;;;17.10;13.23;;;589.20;2432.00;;;;;;5113584;28;20051;-76
2023/07/15 00:53:10;;;;;;;14.23;12.38;;;589.30;2432.00;;;;;;5113410;28;20030;-70
2023/07/15 00:55:37;;;;;;;16.38;12.65;;;589.30;2432.00;;;;;;5114136;28;20036;-71
2023/07/15 00:58:03;;;;;;;14.55;12.88;;;589.30;2432.00;;;;;;5114776;27;20023;-71
2023/07/15 01:00:30;;;;;;;19.60;12.27;;;589.30;2432.00;;;;;;5114418;28;20019;-71
2023/07/15 01:02:56;;;;;;;14.65;12.52;;;589.30;2432.00;;;;;;5112930;28;20019;-73
2023/07/15 01:05:22;;;;;;;15.50;12.60;;;589.20;2432.00;;;;;;5113763;28;20122;-76
2023/07/15 01:07:48;;;;;;;16.05;12.40;;;589.20;2432.00;;;;;;5114243;28;20083;-73
2023/07/15 01:10:13;;;;;;;13.75;11.63;;;589.20;2432.00;;;;;;5113642;28;20036;-76
2023/07/15 01:12:39;;;;;;;17.25;12.20;;;589.30;2432.00;;;;;;5114151;28;20019;-72
2023/07/15 01:15:06;;;;;;;16.38;13.20;;;589.30;2432.00;;;;;;5112518;28;20038;-73
2023/07/15 01:17:32;;;;;;;14.70;13.10;;;589.30;2432.00;;;;;;5113997;28;20124;-71
2023/07/15 01:19:58;;;;;;;16.33;13.90;;;589.20;2432.00;;;;;;5113475;28;20480;-76
2023/07/15 01:22:24;;;;;;;18.52;13.80;;;589.20;2432.00;;;;;;5112548;28;20028;-72
2023/07/15 01:24:50;;;;;;;14.77;13.07;;;589.20;2432.00;;;;;;5112979;28;20042;-70
2023/07/15 01:27:15;;;;;;;15.70;12.60;;;589.20;2432.00;;;;;;5101761;28;20380;-77
2023/07/15 01:29:42;;;;;;;17.73;14.23;;;589.10;2432.00;;;;;;5113432;28;20100;-70
2023/07/15 01:32:09;;;;;;;17.75;13.82;;;589.10;2432.00;;;;;;5112602;28;20046;-73
2023/07/15 01:34:36;;;;;;;17.02;14.50;;;589.00;2432.00;;;;;;5113468;28;20473;-70
2023/07/15 01:37:03;;;;;;;19.13;14.52;;;588.90;2432.00;;;;;;5113452;28;20042;-72
2023/07/15 01:39:29;;;;;;;18.90;15.80;;;588.90;2432.00;;;;;;5113837;28;20073;-70
2023/07/15 01:41:55;;;;;;;17.55;15.27;;;588.90;2432.00;;;;;;5113656;28;20019;-70
2023/07/15 01:44:23;;;;;;;21.40;14.85;;;588.90;2432.00;;;;;;5113196;28;20039;-71
2023/07/15 01:46:49;;;;;;;15.82;13.25;;;588.90;2432.00;;;;;;5113537;28;20405;-70
2023/07/15 01:49:14;;;;;;;19.48;14.07;;;588.90;2432.00;;;;;;5113281;28;20027;-70
2023/07/15 01:51:40;;;;;;;19.75;14.15;;;588.90;2432.00;;;;;;5113163;28;20027;-72
2023/07/15 01:54:06;;;;;;;16.40;13.25;;;588.90;2432.00;;;;;;5113597;28;20015;-71
2023/07/15 01:56:31;;;;;;;17.42;13.77;;;588.90;2432.00;;;;;;5112371;28;20043;-70
2023/07/15 01:58:57;;;;;;;14.65;13.13;;;588.80;2432.00;;;;;;5111450;28;20024;-70
2023/07/15 02:01:23;;;;;;;16.85;13.77;;;588.80;2432.00;;;;;;5101997;28;20102;-72
2023/07/15 02:03:49;;;;;;;16.48;12.95;;;564.10;2432.00;;;;;;5113191;28;20051;-71
2023/07/15 02:06:15;;;;;;;14.77;13.18;;;;;;;;;;5112869;28;20055;-73
2023/07/15 02:08:41;;;;;;;22.33;13.68;;;564.10;2432.00;;;;;;5099201;28;20111;-71
2023/07/15 02:11:07;;;;;;;13.52;11.38;;;564.00;2432.00;;;;;;5113714;28;20051;-71
2023/07/15 02:13:33;;;;;;;14.27;12.07;;;564.00;2432.00;;;;;;5113264;28;20495;-71
2023/07/15 02:15:58;;;;;;;14.73;13.20;;;564.10;2432.00;;;;;;5113659;28;20035;-72
2023/07/15 02:18:25;;;;;;;18.75;13.52;;;564.10;2432.00;;;;;;5112628;28;20063;-70
2023/07/15 02:20:51;;;;;;;21.90;14.32;;;564.00;2432.00;;;;;;5113401;28;20019;-73
2023/07/15 02:23:17;;;;;;;15.65;14.10;;;563.90;2432.00;;;;;;5112900;28;20023;-72
2023/07/15 02:25:43;;;;;;;14.70;13.20;;;563.90;2432.00;;;;;;5113603;28;20020;-70
2023/07/15 02:28:08;;;;;;;17.90;14.50;;;563.90;2432.00;;;;;;5113305;28;20077;-71
2023/07/15 02:30:34;;;;;;;18.45;14.02;;;564.00;2432.00;;;;;;5113076;28;20024;-70
2023/07/15 02:33:01;;;;;;;17.98;16.08;;;564.00;2432.00;;;;;;5112880;28;20107;-71
2023/07/15 02:35:27;;;;;;;17.70;15.75;;;563.90;2432.00;;;;;;5111736;28;20121;-73
2023/07/15 02:37:54;;;;;;;16.17;14.07;;;564.00;2432.00;;;;;;5111587;28;20035;-75
2023/07/15 02:40:20;;;;;;;17.13;13.90;;;563.90;2432.00;;;;;;5113437;28;20030;-70
2023/07/15 02:42:46;;;;;;;19.55;15.25;;;564.10;2432.00;;;;;;5112993;28;20023;-73
2023/07/15 02:45:15;;;;;;;18.98;14.70;;;563.90;2432.00;;;;;;5112763;28;20492;-70
2023/07/15 02:47:40;;;;;;;16.08;13.35;;;564.00;2432.00;;;;;;5112886;28;20107;-71
2023/07/15 02:50:07;;;;;;;15.70;12.82;;;564.00;2432.00;;;;;;5113058;28;20103;-70
2023/07/15 02:52:34;;;;;;;19.58;15.02;;;564.00;2432.00;;;;;;5112612;28;20023;-72
2023/07/15 02:55:04;;;;;;;15.20;13.60;;;564.10;2432.00;;;;;;5112772;28;20039;-72
2023/07/15 02:57:30;;;;;;;16.85;15.02;;;564.10;2432.00;;;;;;5112995;28;20384;-71
2023/07/15 02:59:56;;;;;;;19.38;14.55;;;564.00;2432.00;;;;;;5112927;28;20035;-70
2023/07/15 03:02:23;;;;;;;18.73;15.75;;;564.00;2432.00;;;;;;5112966;28;20028;-74
2023/07/15 03:04:49;;;;;;;20.05;16.52;;;564.10;2432.00;;;;;;5115740;28;20106;-70
2023/07/15 03:07:16;;;;;;;18.35;15.20;;;564.10;2432.00;;;;;;5116418;28;20043;-70
2023/07/15 03:09:42;;;;;;;17.08;14.30;;;564.10;2432.00;;;;;;5116295;28;20118;-71
2023/07/15 03:12:11;;;;;;;16.92;14.82;;;564.10;2432.00;;;;;;5116330;28;20047;-72
2023/07/15 03:14:38;;;;;;;19.63;15.05;;;564.00;2432.00;;;;;;5116618;28;20020;-71
2023/07/15 03:17:04;;;;;;;20.05;16.02;;;563.90;2432.00;;;;;;5116298;28;20084;-70
2023/07/15 03:19:31;;;;;;;23.05;16.27;;;563.90;2432.00;;;;;;5116420;28;20028;-70
2023/07/15 03:21:57;;;;;;;20.50;15.98;;;563.90;2432.00;;;;;;5115607;28;20098;-71
2023/07/15 03:24:25;;;;;;;18.40;16.42;;;563.80;2432.00;;;;;;5116567;28;20099;-72
2023/07/15 03:26:52;;;;;;;19.88;16.88;;;564.00;2432.00;;;;;;5115923;28;20088;-74
2023/07/15 03:29:17;;;;;;;19.23;16.58;;;564.00;2432.00;;;;;;5116120;28;20089;-73
2023/07/15 03:31:43;;;;;;;20.60;17.08;;;564.00;2432.00;;;;;;5115676;28;20510;-71
2023/07/15 03:34:09;;;;;;;21.98;16.77;;;563.90;2432.00;;;;;;5116171;28;20028;-74
2023/07/15 03:36:34;;;;;;;19.52;17.55;;;563.90;2432.00;;;;;;5115779;28;20488;-71
2023/07/15 03:39:00;;;;;;;21.23;18.65;;;563.90;2432.00;;;;;;5116322;28;20019;-71
2023/07/15 03:41:26;;;;;;;23.95;18.30;;;563.90;2432.00;;;;;;5115664;28;20123;-72
2023/07/15 03:43:52;;;;;;;22.05;18.65;;;563.80;2432.00;;;;;;5115761;28;20567;-71
2023/07/15 03:46:17;;;;;;;24.38;18.45;;;563.90;2432.00;;;;;;5115620;28;20098;-72
2023/07/15 03:48:43;;;;;;;22.05;19.55;;;563.80;2432.00;;;;;;5115726;28;20044;-74
2023/07/15 03:51:09;;;;;;;23.30;20.65;;;563.70;2432.00;;;;;;5115355;28;20015;-75
2023/07/15 03:53:35;;;;;;;24.92;20.25;;;563.80;2432.00;;;;;;5115760;28;20472;-71
2023/07/15 03:56:01;;;;;;;23.92;19.67;;;563.80;2432.00;;;;;;5115653;28;20487;-72
2023/07/15 03:58:27;;;;;;;22.08;18.38;;;563.80;2432.00;;;;;;5115559;28;20114;-70
2023/07/15 04:00:52;;;;;;;22.05;18.52;;;563.80;2432.00;;;;;;5115435;28;20016;-70
2023/07/15 04:03:18;;;;;;;23.98;19.05;;;563.80;2432.00;;;;;;5115542;28;20499;-70
2023/07/15 04:05:44;;;;;;;24.98;20.35;;;563.90;2432.00;;;;;;5114811;28;20039;-77
2023/07/15 04:08:11;;;;;;;25.30;20.63;;;564.00;2432.00;;;;;;5115163;28;20423;-71
2023/07/15 04:10:36;;;;;;;27.45;21.02;;;564.00;2432.00;;;;;;5115194;28;20461;-70
2023/07/15 04:13:02;;;;;;;26.63;21.00;;;564.00;2432.00;;;;;;5113280;28;20042;-73
2023/07/15 04:15:30;;;;;;;27.20;21.23;;;564.10;2432.00;;;;;;5115047;28;20016;-71
2023/07/15 04:17:56;;;;;;;28.15;20.15;;;564.10;2432.00;;;;;;5114897;28;20031;-74
2023/07/15 04:20:21;;;;;;;26.60;20.73;;;564.10;2432.00;;;;;;5114728;28;20019;-71
2023/07/15 04:22:47;;;;;;;24.33;20.67;;;564.10;2432.00;;;;;;5115101;28;20384;-71
2023/07/15 04:25:14;;;;;;;32.30;22.05;;;588.80;2432.00;;;;;;5114848;28;20469;-70
2023/07/15 04:27:41;;;;;;;29.33;22.75;;;589.00;2432.00;;;;;;5115151;28;20465;-71
2023/07/15 04:30:10;;;;;;;26.17;19.98;;;588.90;2432.00;;;;;;5114700;28;20023;-70
2023/07/15 04:32:36;;;;;;;26.75;20.48;;;588.90;2432.00;;;;;;5104051;28;20023;-71
2023/07/15 04:35:02;;;;;;;31.70;22.50;;;589.00;2432.00;;;;;;5083504;28;20093;-72
2023/07/15 04:37:29;;;;;;;30.20;23.20;;;589.10;2432.00;;;;;;5083404;28;20040;-70
2023/07/15 04:39:55;;;;;;;29.27;22.98;;;589.20;2432.00;;;;;;5084639;28;20024;-70
2023/07/15 04:42:21;;;;;;;28.73;23.77;;;589.20;2432.00;;;;;;5084036;28;20036;-72
2023/07/15 04:44:47;;;;;;;34.28;25.13;;;589.30;2432.00;;;;;;5086921;28;20080;-70
2023/07/15 04:47:13;;;;;;;31.30;25.25;;;589.40;2432.00;;;;;;5083111;28;20106;-70
2023/07/15 04:49:39;;;;;;;33.40;25.85;;;589.40;2432.00;;;;;;5087457;28;20382;-73
2023/07/15 04:52:05;;;;;;;34.47;23.80;;;589.50;2432.00;;;;;;5087765;28;20473;-72
2023/07/15 04:54:31;;;;;;;33.65;25.08;;;589.60;2432.00;;;;;;5077254;28;20039;-69
2023/07/15 04:56:57;;;;;;;29.75;25.60;;;589.60;2432.00;;;;;;5080815;28;20039;-71
2023/07/15 04:59:22;;;;;;;35.70;26.02;;;589.60;2432.00;;;;;;5085302;28;20099;-72
2023/07/15 05:01:48;;;;;;;34.25;27.65;;;589.60;2432.00;;;;;;5075733;28;20028;-71
2023/07/15 05:04:14;;;;;;;38.85;27.40;;;589.70;2432.00;;;;;;5076868;28;20078;-70
2023/07/15 05:06:40;;;;;;;32.40;25.98;;;589.70;2432.00;;;;;;5085898;28;20113;-72
2023/07/15 05:09:06;;;;;;;37.17;26.45;;;589.70;2432.00;;;;;;5080183;28;20030;-72
2023/07/15 05:11:31;;;;;;;30.75;25.73;;;614.40;2432.00;;;;;;5076261;28;20380;-70
2023/07/15 05:13:57;;;;;;;31.88;24.83;;;614.50;2432.00;;;;;;5082976;28;20466;-70
2023/07/15 05:16:23;;;;;;;29.58;24.52;;;614.50;2432.00;;;;;;5078375;28;20040;-71
2023/07/15 05:18:48;;;;;;;32.25;25.30;;;614.50;2432.00;;;;;;5084165;28;20028;-73
2023/07/15 05:21:14;;;;;;;28.45;24.13;;;614.60;2432.00;;;;;;5079761;28;20032;-70
2023/07/15 05:23:40;;;;;;;27.30;23.63;;;614.70;2432.00;;;;;;5078706;28;20359;-72
2023/07/15 05:26:06;;;;;;;30.80;22.73;;;614.80;2432.00;;;;;;5088060;28;20024;-71
2023/07/15 05:28:32;;;;;;;24.13;18.40;;;614.80;2432.00;;;;;;5084596;28;20115;-70
2023/07/15 05:31:02;;;;;;;25.27;19.20;;;614.80;2432.00;;;;;;5079073;28;20035;-70
2023/07/15 05:33:28;;;;;;;24.30;17.95;;;614.90;2432.00;;;;;;5079095;28;20059;-71
2023/07/15 05:35:55;;;;;;;24.33;17.73;;;614.90;2432.00;;;;;;5080998;28;20097;-72
2023/07/15 05:38:25;;;;;;;21.02;18.10;;;614.80;2432.00;;;;;;5085860;28;20031;-72
2023/07/15 05:40:52;;;;;;;21.13;18.05;;;614.90;2432.00;;;;;;5078930;28;20036;-74
2023/07/15 05:43:19;;;;;;;21.60;17.38;;;615.20;2432.00;;;;;;5084433;28;20028;-73
2023/07/15 05:45:45;;;;;;;22.27;17.80;;;615.20;2432.00;;;;;;5075994;28;20137;-70
2023/07/15 05:48:11;;;;;;;21.33;17.63;;;640.10;2432.00;;;;;;5083197;28;20025;-70
2023/07/15 05:50:37;;;;;;;19.85;17.00;;;640.10;2432.00;;;;;;5081940;28;20020;-72
2023/07/15 05:53:04;;;;;;;21.48;16.70;;;640.20;2432.00;;;;;;5078507;28;20477;-70
2023/07/15 05:55:34;;;;;;;19.13;16.35;;;640.40;2432.00;;;;;;5077058;28;20569;-70
2023/07/15 05:58:01;;;;;;;22.50;16.77;;;640.50;2432.00;;;;;;5085459;28;20063;-75
2023/07/15 06:00:27;;;;;;;21.77;15.93;;;640.50;2432.00;;;;;;5084256;28;20497;-72
2023/07/15 06:02:53;;;;;;;20.95;16.27;;;640.60;2432.00;;;;;;5080927;28;20035;-72
2023/07/15 06:05:18;;;;;;;17.73;15.82;;;640.70;2432.00;;;;;;5085983;28;20383;-73
2023/07/15 06:07:44;;;;;;;21.50;16.10;;;640.80;2432.00;;;;;;5078917;28;20119;-73
2023/07/15 06:10:10;;;;;;;19.98;15.50;;;640.90;2432.00;;;;;;5078786;28;20498;-73
2023/07/15 06:12:35;;;;;;;22.20;15.80;;;665.60;2432.00;;;;;;5081157;28;20481;-73
2023/07/15 06:15:01;;;;;;;20.13;16.63;;;665.70;2432.00;;;;;;5080483;28;20486;-74
2023/07/15 06:17:27;;;;;;;20.33;16.92;;;665.60;2432.00;;;;;;5081834;28;20405;-73
2023/07/15 06:19:52;;;;;;;28.10;18.35;;;665.60;2432.00;;;;;;5079398;28;20070;-75
2023/07/15 06:22:18;;;;;;;21.80;16.33;;;665.70;2432.00;;;;;;5077612;28;20486;-72
2023/07/15 06:24:45;;;;;;;21.77;15.55;;;665.80;2432.00;;;;;;5081524;28;20028;-72
2023/07/15 06:27:11;;;;;;;19.63;15.45;;;665.80;2432.00;;;;;;5080048;28;20425;-72
2023/07/15 06:29:37;;;;;;;16.85;13.93;;;;;;;;;;5078885;28;20028;-76
2023/07/15 06:32:04;;;;;;;19.30;12.73;;;666.10;2432.00;;;;;;5083413;28;20100;-71
2023/07/15 06:34:31;;;;;;;15.48;12.75;;;666.30;2432.00;;;;;;5076465;28;20506;-71
2023/07/15 06:36:57;;;;;;;16.23;11.90;;;666.40;2432.00;;;;;;5080333;28;20051;-71
2023/07/15 06:39:23;;;;;;;12.77;11.25;;;;;;;;;;5081096;28;20028;-73
2023/07/15 06:41:51;;;;;;;16.00;12.68;;;691.30;2432.00;;;;;;5087081;28;20100;-71
2023/07/15 06:44:16;;;;;;;15.60;11.27;;;691.40;2432.00;;;;;;5083682;28;20029;-71
2023/07/15 06:46:42;;;;;;;19.55;12.63;;;691.60;2432.00;;;;;;5084591;28;20033;-72
2023/07/15 06:49:08;;;;;;;16.25;13.23;;;691.60;2432.00;;;;;;5084566;28;20370;-73
2023/07/15 06:51:33;;;;;;;14.55;12.13;;;691.70;2432.00;;;;;;5088441;28;20036;-69
2023/07/15 06:54:00;;;;;;;15.02;11.57;;;;;;;;;;5083304;28;20020;-70
2023/07/15 06:56:26;;;;;;;14.93;11.90;;;691.90;2432.00;;;;;;5085700;28;20036;-70
2023/07/15 06:58:51;;;;;;;18.10;12.27;;;691.80;2432.00;;;;;;5085372;28;20363;-71
2023/07/15 07:01:17;;;;;;;11.93;10.57;;;;;;;;;;5082815;28;20028;-71
2023/07/15 07:03:45;;;;;;;12.65;10.35;;;691.90;2432.00;;;;;;5097055;28;20099;-70
2023/07/15 07:06:10;;;;;;;14.82;9.15;;;692.10;2432.00;;;;;;5087284;28;20067;-72
2023/07/15 07:08:36;;;;;;;14.98;9.73;;;716.80;2432.00;;;;;;5084425;28;20469;-71
2023/07/15 07:11:02;;;;;;;10.40;7.82;;;716.90;2432.00;;;;;;5083388;28;20466;-71
2023/07/15 07:13:28;;;;;;;10.40;8.45;;;716.90;2432.00;;;;;;5086643;28;20032;-74
2023/07/15 07:15:58;;;;;;;13.05;8.55;;;717.10;2432.00;;;;;;5094165;28;20111;-70
2023/07/15 07:18:24;;;;;;;7.50;6.32;;;717.10;2432.00;;;;;;5087976;28;20359;-72
2023/07/15 07:20:58;;;;;;;12.50;7.50;;;717.20;2432.00;;;;;;5080902;28;20020;-69
2023/07/15 07:23:24;;;;;;;9.20;8.27;;;717.50;2432.00;;;;;;5085015;28;20050;-74
2023/07/15 07:25:50;;;;;;;11.40;8.07;;;717.50;2432.00;;;;;;5085508;28;20107;-75
2023/07/15 07:28:16;;;;;;;9.45;6.72;;;717.60;2432.00;;;;;;5083603;28;20023;-76
2023/07/15 07:30:41;;;;;;;8.23;6.10;;;717.50;2432.00;;;;;;5086581;28;20524;-76
2023/07/15 07:33:07;;;;;;;8.93;5.97;;;717.60;2432.00;;;;;;5100020;28;20050;-73
2023/07/15 07:35:33;;;;;;;8.48;6.18;;;717.70;2432.00;;;;;;5082005;28;20041;-69
2023/07/15 07:37:58;;;;;;;8.75;6.70;;;742.40;2432.00;;;;;;5085971;28;20032;-67
2023/07/15 07:40:25;;;;;;;6.82;5.70;;;742.60;2432.00;;;;;;5085627;28;20112;-72
2023/07/15 07:42:51;;;;;;;7.50;6.07;;;742.60;2432.00;;;;;;5083456;28;20029;-70
2023/07/15 07:45:17;;;;;;;6.25;5.50;;;742.80;2432.00;;;;;;5077991;28;20028;-75
2023/07/15 07:47:43;;;;;;;8.55;6.38;;;742.80;2432.00;;;;;;5090532;28;20080;-75
2023/07/15 07:50:09;;;;;;;10.35;5.60;;;742.90;2432.00;;;;;;5085839;28;20111;-70
2023/07/15 07:52:35;;;;;;;8.15;6.50;;;742.80;2406.40;;;;;;5081328;28;20028;-71
2023/07/15 07:55:01;;;;;;;8.00;6.18;;;742.90;2432.00;;;;;;5092645;28;20028;-70
2023/07/15 07:57:27;;;;;;;12.85;6.55;;;743.00;2432.00;;;;;;5087419;28;20363;-71
2023/07/15 07:59:53;;;;;;;9.70;6.20;;;743.20;2432.00;;;;;;5085621;28;20032;-70
2023/07/15 08:02:18;;;;;;;10.23;6.07;;;743.10;2304.00;;;;;;5082759;28;20111;-70
2023/07/15 08:04:44;;;;;;;8.38;5.78;;;743.20;2355.20;;;;;;5083899;28;20034;-73
2023/07/15 08:07:10;;;;;;;6.32;5.07;;;743.30;2355.20;;;;;;5084527;28;20517;-72
2023/07/15 08:09:36;;;;;;;7.50;5.60;;;743.30;2304.00;;;;;;5077586;28;20356;-70
2023/07/15 08:12:01;;;;;;;8.18;5.22;;;768.00;2329.60;;;;;;5085792;28;20118;-72
2023/07/15 08:14:27;;;;;;;9.45;4.90;;;768.20;2304.00;;;;;;5079110;28;20074;-69
2023/07/15 08:16:53;;;;;;;7.35;4.80;;;768.30;2150.40;;;;;;5083121;28;20032;-73
2023/07/15 08:19:18;;;;;;;8.48;4.80;;;768.10;2048.00;;;;;;5083748;28;20052;-71
2023/07/15 08:21:44;;;;;;;13.52;5.07;;;768.20;2201.60;;;;;;5078485;28;20037;-72
2023/07/15 08:24:10;;;;;;;7.57;4.50;;;768.40;2201.60;;;;;;5081844;28;20024;-73
2023/07/15 08:26:35;;;;;;;8.45;5.25;;;768.50;2201.60;;;;;;5106821;28;20024;-70
2023/07/15 08:29:02;;;;;;;8.05;4.95;;;768.60;2124.80;;;;;;5087161;28;20029;-69
2023/07/15 08:31:28;;;;;;;10.43;5.10;;;768.60;2176.00;;;;;;5085714;28;20485;-73
2023/07/15 08:33:54;;;;;;;8.55;5.03;;;768.60;2048.00;;;;;;5076726;28;20048;-69
2023/07/15 08:36:20;;;;;;;7.60;5.40;;;768.70;2073.60;;;;;;5085444;28;20413;-69
2023/07/15 08:38:47;;;;;;;6.15;4.88;;;768.90;2099.20;;;;;;5082957;28;20016;-71
2023/07/15 08:41:14;;;;;;;8.68;4.65;;;768.90;2099.20;;;;;;5094024;28;20059;-69
2023/07/15 08:43:43;;;;;;;6.10;4.43;;;768.70;1996.80;;;;;;5087550;28;20031;-70
2023/07/15 08:46:27;;;;;;;7.32;4.57;;;768.90;2022.40;;;;;;5080176;28;20028;-70
2023/07/15 08:48:56;;;;;;;5.57;3.80;;;768.90;1945.60;;;;;;5085297;28;20020;-70
2023/07/15 08:51:25;;;;;;;4.97;3.85;;;794.20;1817.60;;;;;;5079260;28;20077;-70
2023/07/15 08:53:52;;;;;;;5.82;3.55;;;819.30;1740.80;;;;;;5076931;28;20373;-70
2023/07/15 08:56:20;;;;;;;6.95;3.67;;;794.30;1638.40;;;;;;5080789;28;20035;-70
2023/07/15 08:58:48;;;;;;;5.15;3.88;;;819.80;1638.40;;;;;;5080853;28;20099;-70
2023/07/15 09:01:14;;;;;;;6.47;4.00;;;;;;;;;;5077044;28;20491;-70
2023/07/15 09:03:40;;;;;;;5.60;3.88;;;870.50;1484.80;;;;;;5079072;28;20095;-70
2023/07/15 09:06:07;;;;;;;5.72;3.83;;;820.10;1561.60;;;;;;5086375;28;20144;-70
2023/07/15 09:08:33;;;;;;;4.32;3.40;;;844.80;1561.60;;;;;;5078953;28;20035;-70
2023/07/15 09:10:59;;;;;;;4.57;3.35;;;820.00;1587.20;;;;;;5079517;28;20021;-70
2023/07/15 09:13:31;;;;;;;6.07;3.50;;;870.40;1612.80;;;;;;5083368;28;20063;-70
2023/07/15 09:15:58;;;;;;;4.72;3.78;;;844.90;1510.40;;;;;;5082269;28;20071;-69
2023/07/15 09:18:24;;;;;;;5.75;3.67;;;844.80;1484.80;;;;;;5081862;28;20055;-69
2023/07/15 09:20:51;;;;;;;5.25;3.60;;;844.90;1536.00;;;;;;5081814;28;20028;-69
2023/07/15 09:23:18;;;;;;;7.72;4.65;;;845.60;1510.40;;;;;;5081271;28;20028;-70
2023/07/15 09:25:53;;;;;;;8.60;4.00;;;845.10;1561.60;;;;;;5088633;28;20081;-70
2023/07/15 09:28:21;;;;;;;6.25;4.18;;;845.00;1612.80;;;;;;5081107;28;20024;-70
2023/07/15 09:30:47;;;;;;;10.05;4.65;;;870.50;1561.60;;;;;;5083595;28;20024;-72
2023/07/15 09:33:29;;;;;;;6.78;4.38;;;871.10;1408.00;;;;;;5085760;28;20093;-70
2023/07/15 09:35:56;;;;;;;7.57;4.10;;;845.50;1459.20;;;;;;5084501;28;20032;-70
2023/07/15 09:38:22;;;;;;;5.65;3.33;;;845.30;1536.00;;;;;;5076533;28;20040;-71
2023/07/15 09:40:48;;;;;;;6.00;3.65;;;870.80;1331.20;;;;;;5076345;28;20025;-75
2023/07/15 09:43:14;;;;;;;8.02;4.70;;;871.10;1356.80;;;;;;5081833;28;20028;-69
2023/07/15 09:45:41;;;;;;;5.05;3.97;;;870.60;1459.20;;;;;;5080844;28;20022;-70
2023/07/15 09:48:08;;;;;;;6.78;3.88;;;870.40;1561.60;;;;;;5083700;28;20024;-71
2023/07/15 09:50:36;;;;;;;7.10;4.00;;;870.50;1433.60;;;;;;5080595;28;20025;-72
2023/07/15 09:53:03;;;;;;;7.20;4.45;;;871.00;1459.20;;;;;;5091459;28;20461;-74
2023/07/15 09:55:30;;;;;;;7.18;4.70;;;870.50;1408.00;;;;;;5086962;28;20024;-70
2023/07/15 09:58:23;;;;;;;7.32;5.13;;;870.40;1484.80;;;;;;5081056;28;20088;-71
2023/07/15 10:01:06;;;;;;;9.30;4.95;;;871.30;1408.00;;;;;;5075190;28;20071;-69
2023/07/15 10:03:48;;;;;;;7.40;4.65;;;896.00;1331.20;;;;;;5078567;28;20032;-71
2023/07/15 10:06:15;;;;;;;26.05;6.57;;;871.00;1433.60;;;;;;5081425;28;20105;-70
2023/07/15 10:08:41;;;;;;;6.63;4.50;;;870.90;1484.80;;;;;;5083070;28;20028;-72
2023/07/15 10:11:08;;;;;;;7.25;4.57;;;870.50;1510.40;;;;;;5084734;28;20032;-75
2023/07/15 10:13:35;;;;;;;7.10;4.38;;;870.60;1484.80;;;;;;5082305;28;20020;-71
2023/07/15 10:16:02;;;;;;;8.77;4.53;;;870.70;1459.20;;;;;;5086322;28;20039;-70
2023/07/15 10:18:31;;;;;;;8.93;4.72;;;870.70;1459.20;;;;;;5089663;28;20028;-76
2023/07/15 10:21:05;;;;;;;8.98;4.65;;;870.60;1510.40;;;;;;5095866;28;20031;-70
2023/07/15 10:23:33;;;;;;;5.20;4.30;;;870.80;1484.80;;;;;;5090576;28;20031;-70
2023/07/15 10:26:01;;;;;;;4.97;4.20;;;870.80;1484.80;;;;;;5092905;28;20044;-70
2023/07/15 10:28:42;;;;;;;14.20;3.85;;;870.90;1536.00;;;;;;5090552;28;20056;-71
2023/07/15 10:31:11;;;;;;;5.88;4.05;;;870.80;1433.60;;;;;;5087057;28;20021;-73
2023/07/15 10:34:08;;;;;;;6.03;3.95;;;870.80;1433.60;;;;;;5086650;28;20042;-72
2023/07/15 10:36:47;;;;;;;4.97;3.53;;;870.50;1331.20;;;;;;5042451;28;20541;-71
2023/07/15 10:39:16;;;;;;;7.95;4.10;;;870.70;1305.60;;;;;;5042387;28;20401;-70
2023/07/15 10:41:44;;;;;;;7.90;3.83;;;871.00;1331.20;;;;;;5047712;28;20099;-71
2023/07/15 10:44:24;;;;;;;10.55;4.40;;;871.10;1280.00;;;;;;5044991;28;20127;-70
2023/07/15 10:47:02;;;;;;;6.68;4.20;;;871.10;1382.40;;;;;;5043380;28;20128;-72
2023/07/15 10:49:28;;;;;;;7.25;4.10;;;870.80;1305.60;;;;;;5043341;28;20025;-73
2023/07/15 10:51:57;;;;;;;5.53;4.05;;;871.00;1331.20;;;;;;5040286;28;20098;-71
2023/07/15 10:54:27;;;;;;;4.32;3.45;;;871.00;1356.80;;;;;;5023418;28;20498;-72
2023/07/15 10:56:53;;;;;;;8.75;3.80;;;871.00;1382.40;;;;;;5034724;28;20053;-72
2023/07/15 10:59:23;;;;;;;5.47;3.35;;;870.90;1305.60;;;;;;5038707;28;20025;-73
2023/07/15 11:01:49;;;;;;;7.38;3.40;;;871.10;1280.00;;;;;;5041522;28;20041;-73
2023/07/15 11:04:19;;;;;;;4.90;3.47;;;871.30;1331.20;;;;;;5044208;28;20479;-73
2023/07/15 11:06:45;;;;;;;6.20;3.65;;;871.10;1280.00;;;;;;5042593;28;20069;-74
2023/07/15 11:09:23;;;;;;;5.60;3.65;;;896.00;1280.00;;;;;;5040692;28;20068;-73
2023/07/15 11:11:50;;;;;;;6.78;3.38;;;921.60;1177.60;;;;;;5041591;28;20033;-72
2023/07/15 11:14:25;;;;;;;5.40;3.75;;;922.30;1152.00;;;;;;5087197;28;20025;-73
2023/07/15 11:16:58;;;;;;;8.40;4.88;;;921.90;1177.60;;;;;;5082918;28;20040;-71
2023/07/15 11:19:29;;;;;;;4.55;3.40;;;921.60;1254.40;;;;;;5079556;28;20029;-70
2023/07/15 11:21:56;;;;;;;9.18;3.40;;;;;;;;;;5078286;28;20024;-76
2023/07/15 11:24:23;;;;;;;6.50;3.60;;;922.40;1152.00;;;;;;5083762;28;20020;-71
2023/07/15 11:26:50;;;;;;;5.68;3.03;;;922.30;1126.40;;;;;;5077218;28;20024;-74
2023/07/15 11:29:22;;;;;;;4.15;2.83;;;;;;;;;;5084932;28;20022;-71
2023/07/15 11:31:54;;;;;;;5.43;3.00;;;947.50;1049.60;;;;;;5079832;28;20028;-78
2023/07/15 11:34:22;;;;;;;7.00;3.03;;;947.60;1024.00;;;;;;5085423;28;20040;-72
2023/07/15 11:36:50;;;;;;;4.57;2.80;;;922.50;1049.60;;;;;;5083067;28;20036;-72
2023/07/15 11:39:16;;;;;;;4.03;2.40;;;947.60;1024.00;;;;;;5080601;28;20417;-72
2023/07/15 11:41:43;;;;;;;4.60;2.40;;;948.00;998.40;;;;;;5087252;28;20107;-71
2023/07/15 11:44:14;;;;;;;4.43;2.72;;;947.90;947.20;;;;;;5084676;28;20462;-73
2023/07/15 11:46:43;;;;;;;5.18;3.25;;;947.20;1024.00;;;;;;5083288;28;20024;-70
2023/07/15 11:49:09;;;;;;;4.75;3.20;;;947.40;1024.00;;;;;;5084190;28;20033;-73
2023/07/15 11:51:40;;;;;;;6.40;3.42;;;922.50;1049.60;;;;;;5088114;28;20036;-76
2023/07/15 11:54:11;;;;;;;5.78;3.38;;;922.50;1049.60;;;;;;5078594;28;20052;-71
2023/07/15 11:56:41;;;;;;;5.45;3.40;;;922.10;1152.00;;;;;;5082745;28;20107;-71
2023/07/15 11:59:09;;;;;;;6.30;3.45;;;922.10;1126.40;;;;;;5085190;28;20478;-70
2023/07/15 12:01:40;;;;;;;7.72;3.15;;;922.00;1100.80;;;;;;5083400;28;20480;-71
2023/07/15 12:04:16;;;;;;;4.30;3.15;;;921.80;1177.60;;;;;;5085792;28;20035;-72
2023/07/15 12:06:52;;;;;;;7.35;4.07;;;921.60;1126.40;;;;;;5085146;28;20413;-72
2023/07/15 12:09:20;;;;;;;8.48;3.95;;;921.70;1177.60;;;;;;5085368;28;20028;-71